sensor_id;sensor_type;location;lat;lon;timestamp;P1;durP1;ratioP1;P2;durP2;ratioP2
81591;SDS011;71014;53.394;6.724;2023-11-22T00:00:41;7.22;;;4.20;;
81591;SDS011;71014;53.394;6.724;2023-11-22T00:03:07;8.00;;;4.50;;
81591;SDS011;71014;53.394;6.724;2023-11-22T00:05:33;9.73;;;4.38;;
81591;SDS011;71014;53.394;6.724;2023-11-22T00:07:59;10.48;;;4.22;;
81591;SDS011;71014;53.394;6.724;2023-11-22T00:10:25;7.88;;;3.90;;
81591;SDS011;71014;53.394;6.724;2023-11-22T00:12:52;7.15;;;4.43;;
81591;SDS011;71014;53.394;6.724;2023-11-22T00:15:18;6.00;;;3.92;;
81591;SDS011;71014;53.394;6.724;2023-11-22T00:17:45;4.95;;;3.63;;
81591;SDS011;71014;53.394;6.724;2023-11-22T00:20:11;5.80;;;3.38;;
81591;SDS011;71014;53.394;6.724;2023-11-22T00:22:37;7.28;;;3.45;;
81591;SDS011;71014;53.394;6.724;2023-11-22T00:25:04;7.15;;;3.65;;
81591;SDS011;71014;53.394;6.724;2023-11-22T00:27:30;7.28;;;4.47;;
81591;SDS011;71014;53.394;6.724;2023-11-22T00:29:57;7.65;;;4.13;;
81591;SDS011;71014;53.394;6.724;2023-11-22T00:32:23;8.80;;;4.40;;
81591;SDS011;71014;53.394;6.724;2023-11-22T00:34:49;8.93;;;4.55;;
81591;SDS011;71014;53.394;6.724;2023-11-22T00:37:15;8.38;;;3.83;;
81591;SDS011;71014;53.394;6.724;2023-11-22T00:39:41;7.43;;;3.75;;
81591;SDS011;71014;53.394;6.724;2023-11-22T00:42:07;7.88;;;3.45;;
81591;SDS011;71014;53.394;6.724;2023-11-22T00:44:33;7.43;;;4.20;;
81591;SDS011;71014;53.394;6.724;2023-11-22T00:47:01;7.55;;;4.32;;
81591;SDS011;71014;53.394;6.724;2023-11-22T00:49:27;7.85;;;4.07;;
81591;SDS011;71014;53.394;6.724;2023-11-22T00:51:53;8.82;;;3.95;;
81591;SDS011;71014;53.394;6.724;2023-11-22T00:54:19;8.75;;;4.60;;
81591;SDS011;71014;53.394;6.724;2023-11-22T00:56:45;9.00;;;3.70;;
81591;SDS011;71014;53.394;6.724;2023-11-22T00:59:11;7.47;;;3.70;;
81591;SDS011;71014;53.394;6.724;2023-11-22T01:01:37;7.85;;;3.67;;
81591;SDS011;71014;53.394;6.724;2023-11-22T01:04:03;8.32;;;4.32;;
81591;SDS011;71014;53.394;6.724;2023-11-22T01:06:31;9.30;;;4.93;;
81591;SDS011;71014;53.394;6.724;2023-11-22T01:08:58;8.02;;;4.93;;
81591;SDS011;71014;53.394;6.724;2023-11-22T01:11:24;7.90;;;4.95;;
81591;SDS011;71014;53.394;6.724;2023-11-22T01:13:50;8.10;;;3.83;;
81591;SDS011;71014;53.394;6.724;2023-11-22T01:16:16;12.50;;;5.55;;
81591;SDS011;71014;53.394;6.724;2023-11-22T01:18:42;12.02;;;4.38;;
81591;SDS011;71014;53.394;6.724;2023-11-22T01:21:11;7.43;;;4.63;;
81591;SDS011;71014;53.394;6.724;2023-11-22T01:23:37;9.68;;;4.22;;
81591;SDS011;71014;53.394;6.724;2023-11-22T01:26:03;9.85;;;4.45;;
81591;SDS011;71014;53.394;6.724;2023-11-22T01:28:30;6.65;;;3.63;;
81591;SDS011;71014;53.394;6.724;2023-11-22T01:31:00;5.72;;;3.90;;
81591;SDS011;71014;53.394;6.724;2023-11-22T01:33:28;8.15;;;4.18;;
81591;SDS011;71014;53.394;6.724;2023-11-22T01:35:56;6.22;;;3.70;;
81591;SDS011;71014;53.394;6.724;2023-11-22T01:38:22;4.90;;;3.67;;
81591;SDS011;71014;53.394;6.724;2023-11-22T01:40:51;7.55;;;4.20;;
81591;SDS011;71014;53.394;6.724;2023-11-22T01:43:17;6.85;;;4.05;;
81591;SDS011;71014;53.394;6.724;2023-11-22T01:45:44;8.25;;;4.70;;
81591;SDS011;71014;53.394;6.724;2023-11-22T01:48:10;9.05;;;4.68;;
81591;SDS011;71014;53.394;6.724;2023-11-22T01:50:37;6.97;;;3.78;;
81591;SDS011;71014;53.394;6.724;2023-11-22T01:53:06;9.02;;;4.72;;
81591;SDS011;71014;53.394;6.724;2023-11-22T01:55:32;6.15;;;3.42;;
81591;SDS011;71014;53.394;6.724;2023-11-22T01:57:58;6.80;;;3.92;;
81591;SDS011;71014;53.394;6.724;2023-11-22T02:00:24;9.45;;;4.47;;
81591;SDS011;71014;53.394;6.724;2023-11-22T02:05:18;9.30;;;4.05;;
81591;SDS011;71014;53.394;6.724;2023-11-22T02:07:44;6.22;;;3.88;;
81591;SDS011;71014;53.394;6.724;2023-11-22T02:10:10;8.77;;;4.32;;
81591;SDS011;71014;53.394;6.724;2023-11-22T02:12:36;6.10;;;3.67;;
81591;SDS011;71014;53.394;6.724;2023-11-22T02:15:03;5.38;;;3.83;;
81591;SDS011;71014;53.394;6.724;2023-11-22T02:17:29;8.98;;;4.07;;
81591;SDS011;71014;53.394;6.724;2023-11-22T02:19:56;9.38;;;4.20;;
81591;SDS011;71014;53.394;6.724;2023-11-22T02:22:22;7.78;;;3.60;;
81591;SDS011;71014;53.394;6.724;2023-11-22T02:24:48;7.72;;;3.53;;
81591;SDS011;71014;53.394;6.724;2023-11-22T02:27:14;7.35;;;4.00;;
81591;SDS011;71014;53.394;6.724;2023-11-22T02:29:40;8.35;;;4.35;;
81591;SDS011;71014;53.394;6.724;2023-11-22T02:32:06;8.85;;;4.32;;
81591;SDS011;71014;53.394;6.724;2023-11-22T02:34:33;7.30;;;4.13;;
81591;SDS011;71014;53.394;6.724;2023-11-22T02:36:59;7.95;;;4.03;;
81591;SDS011;71014;53.394;6.724;2023-11-22T02:39:29;11.65;;;5.43;;
81591;SDS011;71014;53.394;6.724;2023-11-22T02:41:58;15.32;;;8.15;;
81591;SDS011;71014;53.394;6.724;2023-11-22T02:44:24;23.25;;;11.02;;
81591;SDS011;71014;53.394;6.724;2023-11-22T02:46:50;18.00;;;10.88;;
81591;SDS011;71014;53.394;6.724;2023-11-22T02:49:16;18.10;;;9.93;;
81591;SDS011;71014;53.394;6.724;2023-11-22T02:51:42;10.40;;;5.30;;
81591;SDS011;71014;53.394;6.724;2023-11-22T02:54:08;17.33;;;6.85;;
81591;SDS011;71014;53.394;6.724;2023-11-22T02:56:34;11.32;;;6.57;;
81591;SDS011;71014;53.394;6.724;2023-11-22T02:59:00;13.77;;;7.05;;
81591;SDS011;71014;53.394;6.724;2023-11-22T03:01:26;13.07;;;7.45;;
81591;SDS011;71014;53.394;6.724;2023-11-22T03:03:52;13.32;;;7.07;;
81591;SDS011;71014;53.394;6.724;2023-11-22T03:06:18;13.18;;;6.35;;
81591;SDS011;71014;53.394;6.724;2023-11-22T03:08:44;10.88;;;6.03;;
81591;SDS011;71014;53.394;6.724;2023-11-22T03:11:10;7.47;;;4.72;;
81591;SDS011;71014;53.394;6.724;2023-11-22T03:13:36;7.38;;;4.78;;
81591;SDS011;71014;53.394;6.724;2023-11-22T03:16:03;11.02;;;5.05;;
81591;SDS011;71014;53.394;6.724;2023-11-22T03:18:29;11.00;;;6.55;;
81591;SDS011;71014;53.394;6.724;2023-11-22T03:20:56;10.25;;;5.47;;
81591;SDS011;71014;53.394;6.724;2023-11-22T03:23:22;8.57;;;4.72;;
81591;SDS011;71014;53.394;6.724;2023-11-22T03:25:48;14.75;;;6.60;;
81591;SDS011;71014;53.394;6.724;2023-11-22T03:28:14;14.83;;;6.83;;
81591;SDS011;71014;53.394;6.724;2023-11-22T03:30:40;8.20;;;5.13;;
81591;SDS011;71014;53.394;6.724;2023-11-22T03:33:06;12.65;;;6.10;;
81591;SDS011;71014;53.394;6.724;2023-11-22T03:35:32;9.93;;;5.05;;
81591;SDS011;71014;53.394;6.724;2023-11-22T03:37:58;8.73;;;5.25;;
81591;SDS011;71014;53.394;6.724;2023-11-22T03:40:24;9.13;;;4.93;;
81591;SDS011;71014;53.394;6.724;2023-11-22T03:42:50;9.18;;;5.05;;
81591;SDS011;71014;53.394;6.724;2023-11-22T03:45:16;10.18;;;5.18;;
81591;SDS011;71014;53.394;6.724;2023-11-22T03:47:42;11.02;;;4.82;;
81591;SDS011;71014;53.394;6.724;2023-11-22T03:50:08;9.60;;;4.72;;
81591;SDS011;71014;53.394;6.724;2023-11-22T03:52:35;10.13;;;5.35;;
81591;SDS011;71014;53.394;6.724;2023-11-22T03:55:01;9.25;;;4.78;;
81591;SDS011;71014;53.394;6.724;2023-11-22T03:57:28;8.73;;;5.45;;
81591;SDS011;71014;53.394;6.724;2023-11-22T03:59:54;8.10;;;4.53;;
81591;SDS011;71014;53.394;6.724;2023-11-22T04:02:20;7.70;;;4.20;;
81591;SDS011;71014;53.394;6.724;2023-11-22T04:04:46;7.63;;;4.45;;
81591;SDS011;71014;53.394;6.724;2023-11-22T04:07:12;11.73;;;5.38;;
81591;SDS011;71014;53.394;6.724;2023-11-22T04:09:38;9.43;;;4.40;;
81591;SDS011;71014;53.394;6.724;2023-11-22T04:12:04;7.20;;;4.50;;
81591;SDS011;71014;53.394;6.724;2023-11-22T04:14:30;7.07;;;3.85;;
81591;SDS011;71014;53.394;6.724;2023-11-22T04:16:56;7.13;;;4.22;;
81591;SDS011;71014;53.394;6.724;2023-11-22T04:19:22;7.57;;;3.85;;
81591;SDS011;71014;53.394;6.724;2023-11-22T04:21:48;6.35;;;3.45;;
81591;SDS011;71014;53.394;6.724;2023-11-22T04:24:14;9.32;;;4.30;;
81591;SDS011;71014;53.394;6.724;2023-11-22T04:26:41;7.30;;;3.80;;
81591;SDS011;71014;53.394;6.724;2023-11-22T04:29:07;5.57;;;3.60;;
81591;SDS011;71014;53.394;6.724;2023-11-22T04:31:33;5.63;;;3.00;;
81591;SDS011;71014;53.394;6.724;2023-11-22T04:33:59;8.80;;;3.45;;
81591;SDS011;71014;53.394;6.724;2023-11-22T04:36:25;8.52;;;4.18;;
81591;SDS011;71014;53.394;6.724;2023-11-22T04:38:51;10.15;;;4.32;;
81591;SDS011;71014;53.394;6.724;2023-11-22T04:41:17;10.45;;;5.03;;
81591;SDS011;71014;53.394;6.724;2023-11-22T04:43:43;9.77;;;5.00;;
81591;SDS011;71014;53.394;6.724;2023-11-22T04:46:10;10.50;;;5.47;;
81591;SDS011;71014;53.394;6.724;2023-11-22T04:48:36;9.27;;;5.07;;
81591;SDS011;71014;53.394;6.724;2023-11-22T04:51:05;8.05;;;4.50;;
81591;SDS011;71014;53.394;6.724;2023-11-22T04:53:31;10.70;;;5.53;;
81591;SDS011;71014;53.394;6.724;2023-11-22T04:55:57;8.45;;;4.25;;
81591;SDS011;71014;53.394;6.724;2023-11-22T04:58:24;8.77;;;4.38;;
81591;SDS011;71014;53.394;6.724;2023-11-22T05:00:50;6.45;;;4.32;;
81591;SDS011;71014;53.394;6.724;2023-11-22T05:03:16;8.00;;;4.00;;
81591;SDS011;71014;53.394;6.724;2023-11-22T05:05:42;9.48;;;5.03;;
81591;SDS011;71014;53.394;6.724;2023-11-22T05:08:08;6.85;;;4.03;;
81591;SDS011;71014;53.394;6.724;2023-11-22T05:10:34;12.13;;;5.30;;
81591;SDS011;71014;53.394;6.724;2023-11-22T05:13:00;8.25;;;4.10;;
81591;SDS011;71014;53.394;6.724;2023-11-22T05:15:28;8.57;;;4.50;;
81591;SDS011;71014;53.394;6.724;2023-11-22T05:17:54;8.95;;;4.40;;
81591;SDS011;71014;53.394;6.724;2023-11-22T05:20:21;7.25;;;4.47;;
81591;SDS011;71014;53.394;6.724;2023-11-22T05:22:47;8.15;;;4.30;;
81591;SDS011;71014;53.394;6.724;2023-11-22T05:25:13;5.95;;;3.38;;
81591;SDS011;71014;53.394;6.724;2023-11-22T05:27:39;6.78;;;4.30;;
81591;SDS011;71014;53.394;6.724;2023-11-22T05:30:05;6.57;;;4.53;;
81591;SDS011;71014;53.394;6.724;2023-11-22T05:32:31;10.02;;;4.78;;
81591;SDS011;71014;53.394;6.724;2023-11-22T05:34:57;9.43;;;5.35;;
81591;SDS011;71014;53.394;6.724;2023-11-22T05:37:24;8.27;;;4.25;;
81591;SDS011;71014;53.394;6.724;2023-11-22T05:39:50;8.23;;;4.05;;
81591;SDS011;71014;53.394;6.724;2023-11-22T05:42:16;10.45;;;4.80;;
81591;SDS011;71014;53.394;6.724;2023-11-22T05:44:43;8.68;;;4.38;;
81591;SDS011;71014;53.394;6.724;2023-11-22T05:47:09;12.85;;;5.90;;
81591;SDS011;71014;53.394;6.724;2023-11-22T05:49:35;10.57;;;5.53;;
81591;SDS011;71014;53.394;6.724;2023-11-22T05:52:01;12.70;;;6.55;;
81591;SDS011;71014;53.394;6.724;2023-11-22T05:54:27;14.88;;;8.32;;
81591;SDS011;71014;53.394;6.724;2023-11-22T05:56:54;13.80;;;6.63;;
81591;SDS011;71014;53.394;6.724;2023-11-22T05:59:20;16.85;;;7.68;;
81591;SDS011;71014;53.394;6.724;2023-11-22T06:01:46;18.15;;;7.43;;
81591;SDS011;71014;53.394;6.724;2023-11-22T06:04:12;15.38;;;6.68;;
81591;SDS011;71014;53.394;6.724;2023-11-22T06:06:38;18.27;;;8.10;;
81591;SDS011;71014;53.394;6.724;2023-11-22T06:09:04;14.75;;;7.35;;
81591;SDS011;71014;53.394;6.724;2023-11-22T06:11:32;15.27;;;7.65;;
81591;SDS011;71014;53.394;6.724;2023-11-22T06:13:58;13.52;;;7.57;;
81591;SDS011;71014;53.394;6.724;2023-11-22T06:16:25;14.65;;;6.90;;
81591;SDS011;71014;53.394;6.724;2023-11-22T06:18:51;16.95;;;8.43;;
81591;SDS011;71014;53.394;6.724;2023-11-22T06:21:17;13.50;;;5.88;;
81591;SDS011;71014;53.394;6.724;2023-11-22T06:23:43;12.18;;;6.90;;
81591;SDS011;71014;53.394;6.724;2023-11-22T06:26:10;16.45;;;7.30;;
81591;SDS011;71014;53.394;6.724;2023-11-22T06:28:36;16.70;;;8.10;;
81591;SDS011;71014;53.394;6.724;2023-11-22T06:31:02;15.32;;;6.70;;
81591;SDS011;71014;53.394;6.724;2023-11-22T06:33:28;14.38;;;7.25;;
81591;SDS011;71014;53.394;6.724;2023-11-22T06:35:54;19.08;;;9.02;;
81591;SDS011;71014;53.394;6.724;2023-11-22T06:38:20;17.13;;;7.75;;
81591;SDS011;71014;53.394;6.724;2023-11-22T06:40:46;15.00;;;7.75;;
81591;SDS011;71014;53.394;6.724;2023-11-22T06:43:12;15.20;;;7.10;;
81591;SDS011;71014;53.394;6.724;2023-11-22T06:45:38;22.77;;;8.32;;
81591;SDS011;71014;53.394;6.724;2023-11-22T06:48:04;15.20;;;7.03;;
81591;SDS011;71014;53.394;6.724;2023-11-22T06:50:30;16.65;;;8.43;;
81591;SDS011;71014;53.394;6.724;2023-11-22T06:52:56;17.27;;;7.90;;
81591;SDS011;71014;53.394;6.724;2023-11-22T06:55:22;15.75;;;7.70;;
81591;SDS011;71014;53.394;6.724;2023-11-22T06:57:48;20.30;;;10.40;;
81591;SDS011;71014;53.394;6.724;2023-11-22T07:00:15;21.48;;;8.77;;
81591;SDS011;71014;53.394;6.724;2023-11-22T07:02:41;15.68;;;7.25;;
81591;SDS011;71014;53.394;6.724;2023-11-22T07:05:07;18.48;;;9.27;;
81591;SDS011;71014;53.394;6.724;2023-11-22T07:07:37;14.55;;;8.25;;
81591;SDS011;71014;53.394;6.724;2023-11-22T07:10:03;20.77;;;10.88;;
81591;SDS011;71014;53.394;6.724;2023-11-22T07:12:33;30.13;;;13.07;;
81591;SDS011;71014;53.394;6.724;2023-11-22T07:14:59;39.65;;;16.20;;
81591;SDS011;71014;53.394;6.724;2023-11-22T07:17:25;30.20;;;14.38;;
81591;SDS011;71014;53.394;6.724;2023-11-22T07:19:53;26.00;;;12.05;;
81591;SDS011;71014;53.394;6.724;2023-11-22T07:22:20;21.88;;;10.85;;
81591;SDS011;71014;53.394;6.724;2023-11-22T07:24:47;19.15;;;9.18;;
81591;SDS011;71014;53.394;6.724;2023-11-22T07:27:16;22.73;;;10.07;;
81591;SDS011;71014;53.394;6.724;2023-11-22T07:29:43;19.73;;;9.35;;
81591;SDS011;71014;53.394;6.724;2023-11-22T07:32:10;18.50;;;9.30;;
81591;SDS011;71014;53.394;6.724;2023-11-22T07:34:36;19.90;;;9.55;;
81591;SDS011;71014;53.394;6.724;2023-11-22T07:37:04;22.50;;;10.77;;
81591;SDS011;71014;53.394;6.724;2023-11-22T07:39:32;19.88;;;9.55;;
81591;SDS011;71014;53.394;6.724;2023-11-22T07:41:58;22.27;;;10.10;;
81591;SDS011;71014;53.394;6.724;2023-11-22T07:44:24;18.48;;;8.60;;
81591;SDS011;71014;53.394;6.724;2023-11-22T07:46:50;16.83;;;9.18;;
81591;SDS011;71014;53.394;6.724;2023-11-22T07:49:16;20.77;;;9.25;;
81591;SDS011;71014;53.394;6.724;2023-11-22T07:51:43;17.48;;;8.98;;
81591;SDS011;71014;53.394;6.724;2023-11-22T07:54:12;19.48;;;9.85;;
81591;SDS011;71014;53.394;6.724;2023-11-22T07:56:41;18.67;;;9.07;;
81591;SDS011;71014;53.394;6.724;2023-11-22T07:59:08;22.50;;;9.48;;
81591;SDS011;71014;53.394;6.724;2023-11-22T08:01:35;15.50;;;9.80;;
81591;SDS011;71014;53.394;6.724;2023-11-22T08:04:01;19.48;;;9.63;;
81591;SDS011;71014;53.394;6.724;2023-11-22T08:06:28;22.95;;;10.02;;
81591;SDS011;71014;53.394;6.724;2023-11-22T08:08:54;20.30;;;9.13;;
81591;SDS011;71014;53.394;6.724;2023-11-22T08:11:20;19.80;;;9.75;;
81591;SDS011;71014;53.394;6.724;2023-11-22T08:13:46;16.80;;;9.60;;
81591;SDS011;71014;53.394;6.724;2023-11-22T08:16:13;19.40;;;9.40;;
81591;SDS011;71014;53.394;6.724;2023-11-22T08:18:39;20.77;;;8.18;;
81591;SDS011;71014;53.394;6.724;2023-11-22T08:21:08;21.27;;;9.00;;
81591;SDS011;71014;53.394;6.724;2023-11-22T08:23:34;17.60;;;8.93;;
81591;SDS011;71014;53.394;6.724;2023-11-22T08:26:00;16.45;;;8.48;;
81591;SDS011;71014;53.394;6.724;2023-11-22T08:30:54;17.52;;;8.57;;
81591;SDS011;71014;53.394;6.724;2023-11-22T08:33:21;21.45;;;9.25;;
81591;SDS011;71014;53.394;6.724;2023-11-22T08:35:47;20.33;;;8.43;;
81591;SDS011;71014;53.394;6.724;2023-11-22T08:38:17;17.58;;;8.90;;
81591;SDS011;71014;53.394;6.724;2023-11-22T08:40:44;21.60;;;9.98;;
81591;SDS011;71014;53.394;6.724;2023-11-22T08:43:10;16.92;;;8.02;;
81591;SDS011;71014;53.394;6.724;2023-11-22T08:45:36;17.80;;;8.98;;
81591;SDS011;71014;53.394;6.724;2023-11-22T08:48:02;18.17;;;8.43;;
81591;SDS011;71014;53.394;6.724;2023-11-22T08:50:28;19.42;;;9.85;;
81591;SDS011;71014;53.394;6.724;2023-11-22T08:52:54;19.75;;;9.95;;
81591;SDS011;71014;53.394;6.724;2023-11-22T08:55:23;17.95;;;8.30;;
81591;SDS011;71014;53.394;6.724;2023-11-22T08:57:49;20.67;;;9.85;;
81591;SDS011;71014;53.394;6.724;2023-11-22T09:00:16;16.67;;;8.07;;
81591;SDS011;71014;53.394;6.724;2023-11-22T09:02:47;16.48;;;8.15;;
81591;SDS011;71014;53.394;6.724;2023-11-22T09:05:14;17.92;;;8.45;;
81591;SDS011;71014;53.394;6.724;2023-11-22T09:07:42;15.38;;;8.02;;
81591;SDS011;71014;53.394;6.724;2023-11-22T09:10:09;20.67;;;9.73;;
81591;SDS011;71014;53.394;6.724;2023-11-22T09:12:39;17.48;;;8.80;;
81591;SDS011;71014;53.394;6.724;2023-11-22T09:15:06;16.15;;;7.50;;
81591;SDS011;71014;53.394;6.724;2023-11-22T09:17:39;15.88;;;9.00;;
81591;SDS011;71014;53.394;6.724;2023-11-22T09:20:15;17.08;;;7.88;;
81591;SDS011;71014;53.394;6.724;2023-11-22T09:22:45;13.93;;;6.88;;
81591;SDS011;71014;53.394;6.724;2023-11-22T09:25:16;17.63;;;8.40;;
81591;SDS011;71014;53.394;6.724;2023-11-22T09:27:44;18.08;;;8.90;;
81591;SDS011;71014;53.394;6.724;2023-11-22T09:30:14;15.27;;;7.97;;
81591;SDS011;71014;53.394;6.724;2023-11-22T09:32:57;17.25;;;7.72;;
81591;SDS011;71014;53.394;6.724;2023-11-22T09:35:23;15.07;;;8.10;;
81591;SDS011;71014;53.394;6.724;2023-11-22T09:37:50;14.82;;;7.47;;
81591;SDS011;71014;53.394;6.724;2023-11-22T09:40:16;16.98;;;8.68;;
81591;SDS011;71014;53.394;6.724;2023-11-22T09:42:44;13.45;;;7.30;;
81591;SDS011;71014;53.394;6.724;2023-11-22T09:45:16;12.30;;;6.82;;
81591;SDS011;71014;53.394;6.724;2023-11-22T09:47:43;13.40;;;6.78;;
81591;SDS011;71014;53.394;6.724;2023-11-22T09:50:10;11.25;;;6.68;;
81591;SDS011;71014;53.394;6.724;2023-11-22T09:52:39;15.23;;;7.05;;
81591;SDS011;71014;53.394;6.724;2023-11-22T09:55:07;13.27;;;6.03;;
81591;SDS011;71014;53.394;6.724;2023-11-22T09:57:33;12.68;;;6.78;;
81591;SDS011;71014;53.394;6.724;2023-11-22T10:00:01;10.10;;;4.95;;
81591;SDS011;71014;53.394;6.724;2023-11-22T10:02:27;14.45;;;7.40;;
81591;SDS011;71014;53.394;6.724;2023-11-22T10:04:54;13.15;;;6.78;;
81591;SDS011;71014;53.394;6.724;2023-11-22T10:07:21;15.52;;;7.55;;
81591;SDS011;71014;53.394;6.724;2023-11-22T10:09:47;14.63;;;6.82;;
81591;SDS011;71014;53.394;6.724;2023-11-22T10:12:14;12.88;;;6.93;;
81591;SDS011;71014;53.394;6.724;2023-11-22T10:14:45;13.93;;;6.70;;
81591;SDS011;71014;53.394;6.724;2023-11-22T10:17:11;10.60;;;5.85;;
81591;SDS011;71014;53.394;6.724;2023-11-22T10:19:40;13.15;;;7.22;;
81591;SDS011;71014;53.394;6.724;2023-11-22T10:22:07;14.30;;;6.15;;
81591;SDS011;71014;53.394;6.724;2023-11-22T10:24:34;12.23;;;6.05;;
81591;SDS011;71014;53.394;6.724;2023-11-22T10:27:03;10.65;;;5.63;;
81591;SDS011;71014;53.394;6.724;2023-11-22T10:29:30;11.85;;;6.82;;
81591;SDS011;71014;53.394;6.724;2023-11-22T10:31:58;15.95;;;6.65;;
81591;SDS011;71014;53.394;6.724;2023-11-22T10:34:25;10.20;;;5.93;;
81591;SDS011;71014;53.394;6.724;2023-11-22T10:36:52;16.38;;;7.47;;
81591;SDS011;71014;53.394;6.724;2023-11-22T10:39:21;13.27;;;7.78;;
81591;SDS011;71014;53.394;6.724;2023-11-22T10:41:47;10.23;;;6.18;;
81591;SDS011;71014;53.394;6.724;2023-11-22T10:44:16;12.95;;;7.03;;
81591;SDS011;71014;53.394;6.724;2023-11-22T10:46:44;10.73;;;5.75;;
81591;SDS011;71014;53.394;6.724;2023-11-22T10:49:10;14.05;;;7.15;;
81591;SDS011;71014;53.394;6.724;2023-11-22T10:51:37;11.68;;;6.60;;
81591;SDS011;71014;53.394;6.724;2023-11-22T10:54:06;11.05;;;6.60;;
81591;SDS011;71014;53.394;6.724;2023-11-22T10:56:39;11.45;;;6.10;;
81591;SDS011;71014;53.394;6.724;2023-11-22T10:59:14;9.52;;;5.47;;
81591;SDS011;71014;53.394;6.724;2023-11-22T11:01:44;10.73;;;6.30;;
81591;SDS011;71014;53.394;6.724;2023-11-22T11:04:15;8.65;;;5.60;;
81591;SDS011;71014;53.394;6.724;2023-11-22T11:06:44;9.23;;;4.85;;
81591;SDS011;71014;53.394;6.724;2023-11-22T11:09:12;9.65;;;4.47;;
81591;SDS011;71014;53.394;6.724;2023-11-22T11:11:41;9.73;;;5.35;;
81591;SDS011;71014;53.394;6.724;2023-11-22T11:14:09;8.93;;;4.80;;
81591;SDS011;71014;53.394;6.724;2023-11-22T11:16:39;5.40;;;4.55;;
81591;SDS011;71014;53.394;6.724;2023-11-22T11:19:13;9.20;;;5.35;;
81591;SDS011;71014;53.394;6.724;2023-11-22T11:21:40;11.02;;;4.40;;
81591;SDS011;71014;53.394;6.724;2023-11-22T11:24:06;8.45;;;4.82;;
81591;SDS011;71014;53.394;6.724;2023-11-22T11:26:32;8.02;;;4.30;;
81591;SDS011;71014;53.394;6.724;2023-11-22T11:29:01;8.30;;;3.83;;
81591;SDS011;71014;53.394;6.724;2023-11-22T11:31:32;7.63;;;4.95;;
81591;SDS011;71014;53.394;6.724;2023-11-22T11:34:02;10.18;;;5.20;;
81591;SDS011;71014;53.394;6.724;2023-11-22T11:36:31;12.20;;;4.50;;
81591;SDS011;71014;53.394;6.724;2023-11-22T11:38:58;6.10;;;3.95;;
81591;SDS011;71014;53.394;6.724;2023-11-22T11:41:26;6.47;;;3.70;;
81591;SDS011;71014;53.394;6.724;2023-11-22T11:43:53;11.07;;;4.57;;
81591;SDS011;71014;53.394;6.724;2023-11-22T11:46:19;6.80;;;3.80;;
81591;SDS011;71014;53.394;6.724;2023-11-22T11:48:48;8.10;;;4.30;;
81591;SDS011;71014;53.394;6.724;2023-11-22T11:51:15;6.22;;;4.00;;
81591;SDS011;71014;53.394;6.724;2023-11-22T11:53:42;7.28;;;3.95;;
81591;SDS011;71014;53.394;6.724;2023-11-22T11:56:09;6.85;;;3.97;;
81591;SDS011;71014;53.394;6.724;2023-11-22T11:58:35;6.40;;;4.07;;
81591;SDS011;71014;53.394;6.724;2023-11-22T12:01:01;7.65;;;4.20;;
81591;SDS011;71014;53.394;6.724;2023-11-22T12:03:27;5.00;;;2.83;;
81591;SDS011;71014;53.394;6.724;2023-11-22T12:05:54;5.70;;;3.47;;
81591;SDS011;71014;53.394;6.724;2023-11-22T12:08:20;5.20;;;3.67;;
81591;SDS011;71014;53.394;6.724;2023-11-22T12:10:46;4.03;;;2.58;;
81591;SDS011;71014;53.394;6.724;2023-11-22T12:13:17;4.10;;;2.78;;
81591;SDS011;71014;53.394;6.724;2023-11-22T12:15:43;4.68;;;2.75;;
81591;SDS011;71014;53.394;6.724;2023-11-22T12:18:09;6.63;;;3.42;;
81591;SDS011;71014;53.394;6.724;2023-11-22T12:20:37;6.15;;;3.45;;
81591;SDS011;71014;53.394;6.724;2023-11-22T12:23:03;6.00;;;3.33;;
81591;SDS011;71014;53.394;6.724;2023-11-22T12:25:30;5.75;;;3.33;;
81591;SDS011;71014;53.394;6.724;2023-11-22T12:27:56;5.45;;;3.33;;
81591;SDS011;71014;53.394;6.724;2023-11-22T12:30:29;4.40;;;2.97;;
81591;SDS011;71014;53.394;6.724;2023-11-22T12:32:56;5.57;;;3.03;;
81591;SDS011;71014;53.394;6.724;2023-11-22T12:35:22;4.68;;;3.17;;
81591;SDS011;71014;53.394;6.724;2023-11-22T12:37:49;5.45;;;3.03;;
81591;SDS011;71014;53.394;6.724;2023-11-22T12:40:15;4.88;;;3.42;;
81591;SDS011;71014;53.394;6.724;2023-11-22T12:42:51;5.03;;;3.30;;
81591;SDS011;71014;53.394;6.724;2023-11-22T12:45:22;6.32;;;3.20;;
81591;SDS011;71014;53.394;6.724;2023-11-22T12:47:52;6.57;;;3.50;;
81591;SDS011;71014;53.394;6.724;2023-11-22T12:50:31;6.95;;;3.40;;
81591;SDS011;71014;53.394;6.724;2023-11-22T12:52:58;5.65;;;3.42;;
81591;SDS011;71014;53.394;6.724;2023-11-22T12:55:24;6.03;;;3.47;;
81591;SDS011;71014;53.394;6.724;2023-11-22T12:57:59;5.90;;;2.95;;
81591;SDS011;71014;53.394;6.724;2023-11-22T13:00:27;5.32;;;3.53;;
81591;SDS011;71014;53.394;6.724;2023-11-22T13:02:57;5.93;;;3.67;;
81591;SDS011;71014;53.394;6.724;2023-11-22T13:05:23;7.35;;;3.92;;
81591;SDS011;71014;53.394;6.724;2023-11-22T13:07:50;6.30;;;3.88;;
81591;SDS011;71014;53.394;6.724;2023-11-22T13:10:16;5.53;;;3.72;;
81591;SDS011;71014;53.394;6.724;2023-11-22T13:12:42;6.88;;;4.20;;
81591;SDS011;71014;53.394;6.724;2023-11-22T13:15:09;6.40;;;3.97;;
81591;SDS011;71014;53.394;6.724;2023-11-22T13:17:38;5.57;;;3.35;;
81591;SDS011;71014;53.394;6.724;2023-11-22T13:20:08;6.20;;;3.63;;
81591;SDS011;71014;53.394;6.724;2023-11-22T13:22:43;7.40;;;3.10;;
81591;SDS011;71014;53.394;6.724;2023-11-22T13:25:12;5.95;;;3.20;;
81591;SDS011;71014;53.394;6.724;2023-11-22T13:27:47;6.10;;;3.85;;
81591;SDS011;71014;53.394;6.724;2023-11-22T13:30:16;6.60;;;3.60;;
81591;SDS011;71014;53.394;6.724;2023-11-22T13:32:50;4.95;;;3.10;;
81591;SDS011;71014;53.394;6.724;2023-11-22T13:35:16;6.65;;;3.67;;
81591;SDS011;71014;53.394;6.724;2023-11-22T13:37:45;6.60;;;3.88;;
81591;SDS011;71014;53.394;6.724;2023-11-22T13:40:13;6.97;;;3.63;;
81591;SDS011;71014;53.394;6.724;2023-11-22T13:42:46;7.45;;;4.05;;
81591;SDS011;71014;53.394;6.724;2023-11-22T13:45:13;6.82;;;4.32;;
81591;SDS011;71014;53.394;6.724;2023-11-22T13:47:45;6.35;;;3.63;;
81591;SDS011;71014;53.394;6.724;2023-11-22T13:50:12;7.13;;;4.47;;
81591;SDS011;71014;53.394;6.724;2023-11-22T13:52:40;6.70;;;3.92;;
81591;SDS011;71014;53.394;6.724;2023-11-22T13:55:06;6.28;;;4.15;;
81591;SDS011;71014;53.394;6.724;2023-11-22T13:57:37;7.95;;;4.30;;
81591;SDS011;71014;53.394;6.724;2023-11-22T14:00:04;6.55;;;4.47;;
81591;SDS011;71014;53.394;6.724;2023-11-22T14:02:34;6.60;;;3.92;;
81591;SDS011;71014;53.394;6.724;2023-11-22T14:05:00;6.40;;;4.15;;
81591;SDS011;71014;53.394;6.724;2023-11-22T14:07:26;7.10;;;3.78;;
81591;SDS011;71014;53.394;6.724;2023-11-22T14:09:52;7.70;;;4.35;;
81591;SDS011;71014;53.394;6.724;2023-11-22T14:12:19;9.50;;;4.25;;
81591;SDS011;71014;53.394;6.724;2023-11-22T14:14:45;5.78;;;3.92;;
81591;SDS011;71014;53.394;6.724;2023-11-22T14:17:11;7.60;;;4.63;;
81591;SDS011;71014;53.394;6.724;2023-11-22T14:19:39;7.35;;;4.95;;
81591;SDS011;71014;53.394;6.724;2023-11-22T14:22:05;7.57;;;4.10;;
81591;SDS011;71014;53.394;6.724;2023-11-22T14:24:33;5.65;;;2.92;;
81591;SDS011;71014;53.394;6.724;2023-11-22T14:27:02;7.60;;;4.28;;
81591;SDS011;71014;53.394;6.724;2023-11-22T14:29:28;6.55;;;3.72;;
81591;SDS011;71014;53.394;6.724;2023-11-22T14:31:54;6.05;;;3.40;;
81591;SDS011;71014;53.394;6.724;2023-11-22T14:34:20;7.90;;;4.30;;
81591;SDS011;71014;53.394;6.724;2023-11-22T14:36:46;9.35;;;5.18;;
81591;SDS011;71014;53.394;6.724;2023-11-22T14:39:12;9.30;;;4.03;;
81591;SDS011;71014;53.394;6.724;2023-11-22T14:41:39;6.28;;;3.25;;
81591;SDS011;71014;53.394;6.724;2023-11-22T14:44:05;5.75;;;2.92;;